sensor_id;sensor_type;location;lat;lon;timestamp;pressure;altitude;pressure_sealevel;temperature;humidity
3748;BME280;1889;50.058;8.688;2022-09-09T00:02:30;99740.59;;;18.89;66.49
3748;BME280;1889;50.058;8.688;2022-09-09T00:05:00;99730.06;;;18.95;66.09
3748;BME280;1889;50.058;8.688;2022-09-09T00:07:43;99731.20;;;18.98;66.00
3748;BME280;1889;50.058;8.688;2022-09-09T00:10:28;99730.84;;;18.97;65.89
3748;BME280;1889;50.058;8.688;2022-09-09T00:13:32;99724.91;;;18.99;65.91
3748;BME280;1889;50.058;8.688;2022-09-09T00:18:58;99720.91;;;18.99;65.78
3748;BME280;1889;50.058;8.688;2022-09-09T00:21:35;99729.98;;;18.96;65.87
3748;BME280;1889;50.058;8.688;2022-09-09T00:24:04;99725.17;;;18.87;65.99
3748;BME280;1889;50.058;8.688;2022-09-09T00:26:38;99730.26;;;18.76;66.38
3748;BME280;1889;50.058;8.688;2022-09-09T00:29:24;99722.92;;;18.73;66.32
3748;BME280;1889;50.058;8.688;2022-09-09T00:31:59;99726.63;;;18.70;66.28
3748;BME280;1889;50.058;8.688;2022-09-09T00:34:25;99724.98;;;18.67;66.23
3748;BME280;1889;50.058;8.688;2022-09-09T00:36:56;99727.84;;;18.64;66.11
3748;BME280;1889;50.058;8.688;2022-09-09T00:39:30;99725.34;;;18.61;66.18
3748;BME280;1889;50.058;8.688;2022-09-09T00:44:58;99721.75;;;18.54;66.33
3748;BME280;1889;50.058;8.688;2022-09-09T00:50:13;99728.77;;;18.48;66.48
3748;BME280;1889;50.058;8.688;2022-09-09T00:58:09;99731.55;;;18.53;66.37
3748;BME280;1889;50.058;8.688;2022-09-09T01:03:37;99729.23;;;18.47;66.36
3748;BME280;1889;50.058;8.688;2022-09-09T01:06:29;99725.87;;;18.44;66.40
3748;BME280;1889;50.058;8.688;2022-09-09T01:09:07;99723.16;;;18.37;66.57
3748;BME280;1889;50.058;8.688;2022-09-09T01:17:23;99733.27;;;18.39;66.45
3748;BME280;1889;50.058;8.688;2022-09-09T01:20:17;99727.86;;;18.40;66.41
3748;BME280;1889;50.058;8.688;2022-09-09T01:23:02;99724.62;;;18.42;66.35
3748;BME280;1889;50.058;8.688;2022-09-09T01:28:21;99722.30;;;18.36;66.36
3748;BME280;1889;50.058;8.688;2022-09-09T01:30:50;99715.72;;;18.35;66.37
3748;BME280;1889;50.058;8.688;2022-09-09T01:33:20;99716.34;;;18.24;66.41
3748;BME280;1889;50.058;8.688;2022-09-09T01:36:14;99716.34;;;18.24;66.41
3748;BME280;1889;50.058;8.688;2022-09-09T01:38:29;99715.59;;;18.13;66.94
3748;BME280;1889;50.058;8.688;2022-09-09T01:41:00;99721.92;;;17.95;67.51
3748;BME280;1889;50.058;8.688;2022-09-09T01:43:29;99716.17;;;17.78;68.28
3748;BME280;1889;50.058;8.688;2022-09-09T01:46:01;99720.41;;;17.82;68.02
3748;BME280;1889;50.058;8.688;2022-09-09T01:48:31;99720.05;;;17.97;67.57
3748;BME280;1889;50.058;8.688;2022-09-09T01:51:01;99720.05;;;17.97;67.57
3748;BME280;1889;50.058;8.688;2022-09-09T01:53:30;99719.03;;;18.00;67.34
3748;BME280;1889;50.058;8.688;2022-09-09T01:59:03;99712.45;;;17.98;66.96
3748;BME280;1889;50.058;8.688;2022-09-09T02:01:52;99712.45;;;17.98;66.96
3748;BME280;1889;50.058;8.688;2022-09-09T02:07:00;99710.41;;;17.95;67.26
3748;BME280;1889;50.058;8.688;2022-09-09T02:09:30;99717.17;;;17.84;67.77
3748;BME280;1889;50.058;8.688;2022-09-09T02:12:16;99717.95;;;17.86;67.67
3748;BME280;1889;50.058;8.688;2022-09-09T02:14:46;99718.59;;;17.91;67.51
3748;BME280;1889;50.058;8.688;2022-09-09T02:17:15;99723.77;;;18.02;67.23
3748;BME280;1889;50.058;8.688;2022-09-09T02:19:49;99727.06;;;18.07;67.36
3748;BME280;1889;50.058;8.688;2022-09-09T02:22:20;99722.12;;;18.08;66.84
3748;BME280;1889;50.058;8.688;2022-09-09T02:24:52;99730.59;;;18.07;66.85
3748;BME280;1889;50.058;8.688;2022-09-09T02:27:23;99730.59;;;18.07;66.85
3748;BME280;1889;50.058;8.688;2022-09-09T02:29:53;99725.34;;;18.06;67.25
3748;BME280;1889;50.058;8.688;2022-09-09T02:32:24;99728.47;;;18.05;67.38
3748;BME280;1889;50.058;8.688;2022-09-09T02:34:57;99733.52;;;17.94;68.40
3748;BME280;1889;50.058;8.688;2022-09-09T02:37:31;99733.52;;;17.94;68.40
3748;BME280;1889;50.058;8.688;2022-09-09T02:39:59;99735.11;;;17.89;68.08
3748;BME280;1889;50.058;8.688;2022-09-09T02:42:29;99733.31;;;17.90;68.11
3748;BME280;1889;50.058;8.688;2022-09-09T02:44:58;99731.94;;;17.74;69.14
3748;BME280;1889;50.058;8.688;2022-09-09T02:47:35;99725.49;;;17.78;68.87
3748;BME280;1889;50.058;8.688;2022-09-09T02:50:17;99731.66;;;17.87;68.42
3748;BME280;1889;50.058;8.688;2022-09-09T02:56:11;99725.47;;;17.87;68.76
3748;BME280;1889;50.058;8.688;2022-09-09T02:57:55;99730.81;;;17.78;69.37
3748;BME280;1889;50.058;8.688;2022-09-09T03:00:27;99735.11;;;17.89;69.35
3748;BME280;1889;50.058;8.688;2022-09-09T03:02:57;99738.34;;;17.79;70.05
3748;BME280;1889;50.058;8.688;2022-09-09T03:05:26;99738.34;;;17.79;70.05
3748;BME280;1889;50.058;8.688;2022-09-09T03:07:56;99732.26;;;17.92;69.41
3748;BME280;1889;50.058;8.688;2022-09-09T03:10:25;99729.59;;;17.92;69.41
3748;BME280;1889;50.058;8.688;2022-09-09T03:12:54;99731.19;;;17.88;69.86
3748;BME280;1889;50.058;8.688;2022-09-09T03:15:24;99731.94;;;17.74;70.48
3748;BME280;1889;50.058;8.688;2022-09-09T03:17:55;99732.48;;;17.72;70.73
3748;BME280;1889;50.058;8.688;2022-09-09T03:20:26;99726.41;;;17.86;70.11
3748;BME280;1889;50.058;8.688;2022-09-09T03:22:56;99722.70;;;17.97;69.48
3748;BME280;1889;50.058;8.688;2022-09-09T03:25:25;99722.52;;;18.00;69.36
3748;BME280;1889;50.058;8.688;2022-09-09T03:27:55;99723.96;;;17.99;69.27
3748;BME280;1889;50.058;8.688;2022-09-09T03:30:26;99724.16;;;18.03;69.15
3748;BME280;1889;50.058;8.688;2022-09-09T03:32:56;99730.12;;;18.08;69.01
3748;BME280;1889;50.058;8.688;2022-09-09T03:35:25;99728.99;;;18.12;68.86
3748;BME280;1889;50.058;8.688;2022-09-09T03:37:54;99727.03;;;18.15;68.68
3748;BME280;1889;50.058;8.688;2022-09-09T03:40:24;99719.05;;;18.15;68.59
3748;BME280;1889;50.058;8.688;2022-09-09T03:42:54;99726.33;;;17.87;69.92
3748;BME280;1889;50.058;8.688;2022-09-09T03:45:23;99726.33;;;17.87;69.92
3748;BME280;1889;50.058;8.688;2022-09-09T03:47:52;99733.48;;;17.52;71.24
3748;BME280;1889;50.058;8.688;2022-09-09T03:50:22;99728.97;;;17.29;72.36
3748;BME280;1889;50.058;8.688;2022-09-09T03:52:51;99723.91;;;17.15;73.15
3748;BME280;1889;50.058;8.688;2022-09-09T03:55:21;99723.91;;;17.15;73.15
3748;BME280;1889;50.058;8.688;2022-09-09T03:57:50;99712.95;;;17.22;73.24
3748;BME280;1889;50.058;8.688;2022-09-09T04:00:19;99710.41;;;17.44;71.74
3748;BME280;1889;50.058;8.688;2022-09-09T04:02:49;99709.73;;;17.32;72.59
3748;BME280;1889;50.058;8.688;2022-09-09T04:05:20;99711.80;;;17.19;73.36
3748;BME280;1889;50.058;8.688;2022-09-09T04:07:49;99711.80;;;17.19;73.36
3748;BME280;1889;50.058;8.688;2022-09-09T04:10:19;99712.41;;;17.24;73.15
3748;BME280;1889;50.058;8.688;2022-09-09T04:12:49;99708.88;;;17.32;72.49
3748;BME280;1889;50.058;8.688;2022-09-09T04:15:18;99716.78;;;17.42;72.13
3748;BME280;1889;50.058;8.688;2022-09-09T04:17:48;99713.47;;;17.45;71.90
3748;BME280;1889;50.058;8.688;2022-09-09T04:20:17;99715.44;;;17.50;71.68
3748;BME280;1889;50.058;8.688;2022-09-09T04:22:47;99721.05;;;17.53;71.63
3748;BME280;1889;50.058;8.688;2022-09-09T04:25:17;99710.40;;;17.53;71.77
3748;BME280;1889;50.058;8.688;2022-09-09T04:27:46;99706.60;;;17.41;72.60
3748;BME280;1889;50.058;8.688;2022-09-09T04:30:16;99706.60;;;17.41;72.60
3748;BME280;1889;50.058;8.688;2022-09-09T04:32:45;99707.36;;;17.43;72.87
3748;BME280;1889;50.058;8.688;2022-09-09T04:35:14;99706.80;;;17.54;72.51
3748;BME280;1889;50.058;8.688;2022-09-09T04:37:44;99706.39;;;17.79;71.41
3748;BME280;1889;50.058;8.688;2022-09-09T04:40:13;99706.39;;;17.79;71.41
3748;BME280;1889;50.058;8.688;2022-09-09T04:42:43;99704.17;;;17.87;71.02
3748;BME280;1889;50.058;8.688;2022-09-09T04:45:12;99704.17;;;17.87;71.02
3748;BME280;1889;50.058;8.688;2022-09-09T04:47:42;99700.46;;;17.98;70.89
3748;BME280;1889;50.058;8.688;2022-09-09T04:50:11;99697.84;;;18.05;70.71
3748;BME280;1889;50.058;8.688;2022-09-09T04:52:40;99706.82;;;18.11;70.56
3748;BME280;1889;50.058;8.688;2022-09-09T04:55:09;99706.82;;;18.11;70.56
3748;BME280;1889;50.058;8.688;2022-09-09T04:57:42;99702.95;;;18.17;70.39
3748;BME280;1889;50.058;8.688;2022-09-09T05:00:12;99702.95;;;18.17;70.39
3748;BME280;1889;50.058;8.688;2022-09-09T05:02:42;99705.09;;;18.10;70.39
3748;BME280;1889;50.058;8.688;2022-09-09T05:05:11;99712.10;;;18.04;70.68
3748;BME280;1889;50.058;8.688;2022-09-09T05:07:40;99713.01;;;18.12;70.38
3748;BME280;1889;50.058;8.688;2022-09-09T05:10:09;99711.13;;;18.14;70.22
3748;BME280;1889;50.058;8.688;2022-09-09T05:12:38;99720.17;;;18.03;70.18
3748;BME280;1889;50.058;8.688;2022-09-09T05:15:09;99727.50;;;18.15;70.13
3748;BME280;1889;50.058;8.688;2022-09-09T05:17:38;99729.16;;;18.24;69.74
3748;BME280;1889;50.058;8.688;2022-09-09T05:20:08;99737.97;;;18.18;69.94
3748;BME280;1889;50.058;8.688;2022-09-09T05:22:37;99742.84;;;18.34;69.54
3748;BME280;1889;50.058;8.688;2022-09-09T05:25:07;99742.84;;;18.34;69.54
3748;BME280;1889;50.058;8.688;2022-09-09T05:27:36;99747.97;;;18.46;69.00
3748;BME280;1889;50.058;8.688;2022-09-09T05:30:06;99747.97;;;18.46;69.00
3748;BME280;1889;50.058;8.688;2022-09-09T05:32:36;99753.54;;;18.41;69.09
3748;BME280;1889;50.058;8.688;2022-09-09T05:35:05;99745.81;;;18.37;69.19
3748;BME280;1889;50.058;8.688;2022-09-09T05:37:35;99764.43;;;18.45;69.13
3748;BME280;1889;50.058;8.688;2022-09-09T05:40:05;99760.73;;;18.56;68.84
3748;BME280;1889;50.058;8.688;2022-09-09T05:42:34;99765.88;;;18.59;68.70
3748;BME280;1889;50.058;8.688;2022-09-09T05:45:04;99759.77;;;18.49;68.91
3748;BME280;1889;50.058;8.688;2022-09-09T05:47:33;99762.51;;;18.56;68.85
3748;BME280;1889;50.058;8.688;2022-09-09T05:50:04;99762.11;;;18.63;68.56
3748;BME280;1889;50.058;8.688;2022-09-09T05:52:33;99757.69;;;18.47;68.71
3748;BME280;1889;50.058;8.688;2022-09-09T05:55:04;99767.14;;;18.52;68.82
3748;BME280;1889;50.058;8.688;2022-09-09T05:57:50;99775.84;;;18.56;68.80
3748;BME280;1889;50.058;8.688;2022-09-09T06:00:20;99775.84;;;18.56;68.80
3748;BME280;1889;50.058;8.688;2022-09-09T06:02:52;99777.52;;;18.65;68.22
3748;BME280;1889;50.058;8.688;2022-09-09T06:05:22;99775.47;;;18.71;67.78
3748;BME280;1889;50.058;8.688;2022-09-09T06:07:53;99787.63;;;18.67;67.94
3748;BME280;1889;50.058;8.688;2022-09-09T06:10:23;99781.81;;;18.84;67.67
3748;BME280;1889;50.058;8.688;2022-09-09T06:12:53;99789.78;;;18.77;67.57
3748;BME280;1889;50.058;8.688;2022-09-09T06:15:22;99786.20;;;18.85;67.40
3748;BME280;1889;50.058;8.688;2022-09-09T06:17:55;99780.58;;;18.66;67.74
3748;BME280;1889;50.058;8.688;2022-09-09T06:20:24;99780.58;;;18.66;67.74
3748;BME280;1889;50.058;8.688;2022-09-09T06:22:53;99779.59;;;18.76;67.53
3748;BME280;1889;50.058;8.688;2022-09-09T06:25:22;99781.03;;;18.82;67.51
3748;BME280;1889;50.058;8.688;2022-09-09T06:27:52;99783.60;;;18.99;67.14
3748;BME280;1889;50.058;8.688;2022-09-09T06:30:21;99779.27;;;19.05;67.06
3748;BME280;1889;50.058;8.688;2022-09-09T06:32:50;99779.84;;;19.10;66.73
3748;BME280;1889;50.058;8.688;2022-09-09T06:35:19;99771.95;;;19.16;66.53
3748;BME280;1889;50.058;8.688;2022-09-09T06:37:48;99779.31;;;19.19;66.34
3748;BME280;1889;50.058;8.688;2022-09-09T06:40:17;99782.11;;;19.32;66.02
3748;BME280;1889;50.058;8.688;2022-09-09T06:42:46;99783.44;;;19.32;65.93
3748;BME280;1889;50.058;8.688;2022-09-09T06:45:16;99785.31;;;19.46;65.65
3748;BME280;1889;50.058;8.688;2022-09-09T06:47:46;99787.25;;;19.51;65.63
3748;BME280;1889;50.058;8.688;2022-09-09T06:50:15;99792.98;;;19.52;65.31
3748;BME280;1889;50.058;8.688;2022-09-09T06:52:46;99786.03;;;19.63;65.15
3748;BME280;1889;50.058;8.688;2022-09-09T06:55:19;99790.23;;;19.53;65.10
3748;BME280;1889;50.058;8.688;2022-09-09T06:57:48;99791.12;;;19.45;65.30
3748;BME280;1889;50.058;8.688;2022-09-09T07:00:18;99796.20;;;19.27;65.43
3748;BME280;1889;50.058;8.688;2022-09-09T07:02:47;99793.48;;;19.35;65.47
3748;BME280;1889;50.058;8.688;2022-09-09T07:05:18;99788.34;;;19.47;65.26
3748;BME280;1889;50.058;8.688;2022-09-09T07:07:50;99791.19;;;19.59;65.12
3748;BME280;1889;50.058;8.688;2022-09-09T07:10:20;99791.30;;;19.72;64.63
3748;BME280;1889;50.058;8.688;2022-09-09T07:12:52;99787.59;;;19.74;64.40
3748;BME280;1889;50.058;8.688;2022-09-09T07:15:21;99790.39;;;19.94;64.10
3748;BME280;1889;50.058;8.688;2022-09-09T07:17:50;99788.84;;;19.76;63.91
3748;BME280;1889;50.058;8.688;2022-09-09T07:20:20;99795.34;;;19.86;63.99
3748;BME280;1889;50.058;8.688;2022-09-09T07:22:50;99801.02;;;19.66;64.00
3748;BME280;1889;50.058;8.688;2022-09-09T07:25:19;99800.64;;;19.72;63.92
3748;BME280;1889;50.058;8.688;2022-09-09T07:27:48;99799.45;;;19.55;64.25
3748;BME280;1889;50.058;8.688;2022-09-09T07:30:17;99794.89;;;19.57;64.33
3748;BME280;1889;50.058;8.688;2022-09-09T07:32:47;99791.81;;;19.49;64.69
3748;BME280;1889;50.058;8.688;2022-09-09T07:35:16;99792.68;;;19.49;64.66
3748;BME280;1889;50.058;8.688;2022-09-09T07:37:45;99791.27;;;19.58;64.41
3748;BME280;1889;50.058;8.688;2022-09-09T07:40:15;99798.73;;;19.67;64.18
3748;BME280;1889;50.058;8.688;2022-09-09T07:42:44;99799.14;;;19.82;63.81
3748;BME280;1889;50.058;8.688;2022-09-09T07:45:13;99796.55;;;19.80;63.87
3748;BME280;1889;50.058;8.688;2022-09-09T07:47:42;99805.02;;;19.59;63.98
3748;BME280;1889;50.058;8.688;2022-09-09T07:50:11;99804.70;;;19.49;64.68
3748;BME280;1889;50.058;8.688;2022-09-09T07:52:40;99802.42;;;19.57;64.53
3748;BME280;1889;50.058;8.688;2022-09-09T07:55:09;99808.24;;;19.57;64.38
3748;BME280;1889;50.058;8.688;2022-09-09T07:57:38;99811.86;;;19.56;64.56
3748;BME280;1889;50.058;8.688;2022-09-09T08:00:08;99813.66;;;19.55;64.67
3748;BME280;1889;50.058;8.688;2022-09-09T08:02:38;99815.63;;;19.67;64.32
3748;BME280;1889;50.058;8.688;2022-09-09T08:05:07;99825.77;;;19.84;63.94
3748;BME280;1889;50.058;8.688;2022-09-09T08:07:37;99824.52;;;19.89;63.86
3748;BME280;1889;50.058;8.688;2022-09-09T08:10:06;99838.83;;;19.88;63.65
3748;BME280;1889;50.058;8.688;2022-09-09T08:12:35;99835.13;;;19.98;63.72
3748;BME280;1889;50.058;8.688;2022-09-09T08:15:05;99826.80;;;19.81;63.54
3748;BME280;1889;50.058;8.688;2022-09-09T08:17:34;99826.80;;;19.81;63.54
3748;BME280;1889;50.058;8.688;2022-09-09T08:20:06;99835.99;;;20.05;63.52
3748;BME280;1889;50.058;8.688;2022-09-09T08:22:35;99829.70;;;20.06;63.41
3748;BME280;1889;50.058;8.688;2022-09-09T08:25:06;99834.69;;;20.27;62.83
3748;BME280;1889;50.058;8.688;2022-09-09T08:27:39;99842.45;;;19.87;63.45
3748;BME280;1889;50.058;8.688;2022-09-09T08:30:09;99837.62;;;20.15;62.79
3748;BME280;1889;50.058;8.688;2022-09-09T08:32:38;99847.84;;;20.08;62.79
3748;BME280;1889;50.058;8.688;2022-09-09T08:35:08;99840.00;;;20.12;62.91
3748;BME280;1889;50.058;8.688;2022-09-09T08:37:38;99845.80;;;20.35;62.38
3748;BME280;1889;50.058;8.688;2022-09-09T08:40:10;99852.02;;;20.05;62.61
3748;BME280;1889;50.058;8.688;2022-09-09T08:42:45;99839.73;;;20.10;62.12
3748;BME280;1889;50.058;8.688;2022-09-09T08:45:50;99851.14;;;20.35;61.90
3748;BME280;1889;50.058;8.688;2022-09-09T08:48:18;99851.14;;;20.35;61.90
3748;BME280;1889;50.058;8.688;2022-09-09T08:50:46;99850.18;;;20.50;61.89
3748;BME280;1889;50.058;8.688;2022-09-09T08:53:27;99852.52;;;20.69;61.28
3748;BME280;1889;50.058;8.688;2022-09-09T08:55:57;99843.74;;;20.60;60.61
3748;BME280;1889;50.058;8.688;2022-09-09T08:58:30;99842.69;;;20.69;60.81
3748;BME280;1889;50.058;8.688;2022-09-09T09:04:13;99843.34;;;20.80;60.02
3748;BME280;1889;50.058;8.688;2022-09-09T09:06:46;99826.63;;;20.83;60.05
3748;BME280;1889;50.058;8.688;2022-09-09T09:09:35;99831.60;;;20.82;60.02
3748;BME280;1889;50.058;8.688;2022-09-09T09:12:10;99826.58;;;20.56;60.63
3748;BME280;1889;50.058;8.688;2022-09-09T09:14:35;99830.56;;;20.71;60.18
3748;BME280;1889;50.058;8.688;2022-09-09T09:17:10;99818.20;;;20.89;59.82
3748;BME280;1889;50.058;8.688;2022-09-09T09:19:39;99818.20;;;20.89;59.82
3748;BME280;1889;50.058;8.688;2022-09-09T09:22:24;99823.14;;;20.95;59.91
3748;BME280;1889;50.058;8.688;2022-09-09T09:27:44;99831.98;;;20.83;59.67
3748;BME280;1889;50.058;8.688;2022-09-09T09:30:16;99827.88;;;21.12;59.41
3748;BME280;1889;50.058;8.688;2022-09-09T09:33:00;99826.01;;;20.92;59.69
3748;BME280;1889;50.058;8.688;2022-09-09T09:35:30;99829.88;;;21.08;59.88
3748;BME280;1889;50.058;8.688;2022-09-09T09:37:59;99830.20;;;21.04;59.75
3748;BME280;1889;50.058;8.688;2022-09-09T09:40:29;99821.49;;;21.00;60.06
3748;BME280;1889;50.058;8.688;2022-09-09T09:43:00;99833.89;;;20.81;61.47
3748;BME280;1889;50.058;8.688;2022-09-09T09:45:43;99824.38;;;20.56;63.15
3748;BME280;1889;50.058;8.688;2022-09-09T09:48:15;99823.60;;;20.33;65.17
3748;BME280;1889;50.058;8.688;2022-09-09T09:50:49;99823.31;;;20.09;65.66
3748;BME280;1889;50.058;8.688;2022-09-09T09:53:25;99837.33;;;20.05;66.74
3748;BME280;1889;50.058;8.688;2022-09-09T09:55:59;99825.20;;;19.86;67.53
3748;BME280;1889;50.058;8.688;2022-09-09T09:58:55;99819.86;;;19.86;68.30
3748;BME280;1889;50.058;8.688;2022-09-09T10:01:04;99816.64;;;20.09;66.88
3748;BME280;1889;50.058;8.688;2022-09-09T10:03:36;99812.53;;;20.25;66.92
3748;BME280;1889;50.058;8.688;2022-09-09T10:06:06;99817.41;;;20.25;67.68
3748;BME280;1889;50.058;8.688;2022-09-09T10:08:44;99811.94;;;19.98;67.89
3748;BME280;1889;50.058;8.688;2022-09-09T10:11:23;99810.52;;;20.00;67.57
3748;BME280;1889;50.058;8.688;2022-09-09T10:19:34;99811.66;;;20.31;67.66
3748;BME280;1889;50.058;8.688;2022-09-09T10:36:25;99794.24;;;21.35;64.05
3748;BME280;1889;50.058;8.688;2022-09-09T10:45:05;99798.98;;;21.63;61.48
3748;BME280;1889;50.058;8.688;2022-09-09T10:48:29;99791.31;;;21.90;61.71
3748;BME280;1889;50.058;8.688;2022-09-09T10:51:10;99793.82;;;21.73;60.98
3748;BME280;1889;50.058;8.688;2022-09-09T10:54:28;99785.88;;;21.59;60.14
3748;BME280;1889;50.058;8.688;2022-09-09T10:56:20;99777.03;;;21.51;60.57
3748;BME280;1889;50.058;8.688;2022-09-09T10:59:04;99774.45;;;21.37;60.82
3748;BME280;1889;50.058;8.688;2022-09-09T11:01:50;99777.80;;;21.33;60.32
3748;BME280;1889;50.058;8.688;2022-09-09T11:07:14;99781.31;;;20.87;61.60
3748;BME280;1889;50.058;8.688;2022-09-09T11:09:49;99781.28;;;20.94;59.93
3748;BME280;1889;50.058;8.688;2022-09-09T11:12:19;99766.82;;;21.04;60.30
3748;BME280;1889;50.058;8.688;2022-09-09T11:17:44;99764.39;;;21.14;59.38
3748;BME280;1889;50.058;8.688;2022-09-09T11:20:13;99768.60;;;21.18;57.61
3748;BME280;1889;50.058;8.688;2022-09-09T11:22:55;99766.22;;;21.13;57.31
3748;BME280;1889;50.058;8.688;2022-09-09T11:25:40;99772.23;;;21.24;56.11
3748;BME280;1889;50.058;8.688;2022-09-09T11:28:26;99774.72;;;21.20;55.35
3748;BME280;1889;50.058;8.688;2022-09-09T11:39:43;99775.45;;;21.61;55.56
3748;BME280;1889;50.058;8.688;2022-09-09T11:42:22;99774.06;;;21.68;55.63
3748;BME280;1889;50.058;8.688;2022-09-09T11:44:46;99777.58;;;22.01;56.14
3748;BME280;1889;50.058;8.688;2022-09-09T11:47:30;99784.55;;;22.29;55.83
3748;BME280;1889;50.058;8.688;2022-09-09T11:52:50;99763.57;;;22.29;54.86
3748;BME280;1889;50.058;8.688;2022-09-09T11:55:31;99757.58;;;22.43;54.06
3748;BME280;1889;50.058;8.688;2022-09-09T11:58:16;99769.11;;;22.38;53.32
3748;BME280;1889;50.058;8.688;2022-09-09T12:00:42;99772.98;;;22.03;52.26
3748;BME280;1889;50.058;8.688;2022-09-09T12:03:34;99778.47;;;21.95;50.79
3748;BME280;1889;50.058;8.688;2022-09-09T12:09:12;99772.68;;;22.14;49.60
3748;BME280;1889;50.058;8.688;2022-09-09T12:11:29;99780.21;;;22.21;49.40
3748;BME280;1889;50.058;8.688;2022-09-09T12:14:00;99778.01;;;22.39;49.27
3748;BME280;1889;50.058;8.688;2022-09-09T12:16:34;99777.11;;;22.45;49.26
3748;BME280;1889;50.058;8.688;2022-09-09T12:19:13;99775.98;;;22.30;49.25
3748;BME280;1889;50.058;8.688;2022-09-09T12:21:44;99769.47;;;21.96;50.04
3748;BME280;1889;50.058;8.688;2022-09-09T12:24:16;99766.92;;;21.75;50.71
3748;BME280;1889;50.058;8.688;2022-09-09T12:27:07;99770.52;;;22.13;50.19
3748;BME280;1889;50.058;8.688;2022-09-09T12:29:58;99765.15;;;22.13;50.22
3748;BME280;1889;50.058;8.688;2022-09-09T12:32:26;99764.53;;;22.15;50.30
3748;BME280;1889;50.058;8.688;2022-09-09T12:34:59;99762.95;;;22.00;50.83
3748;BME280;1889;50.058;8.688;2022-09-09T12:40:23;99766.17;;;22.05;52.79
3748;BME280;1889;50.058;8.688;2022-09-09T12:42:53;99779.52;;;22.12;53.90
3748;BME280;1889;50.058;8.688;2022-09-09T12:45:26;99780.09;;;21.52;57.50
3748;BME280;1889;50.058;8.688;2022-09-09T12:50:36;99782.52;;;20.62;64.23
3748;BME280;1889;50.058;8.688;2022-09-09T12:53:11;99781.03;;;20.08;68.47
3748;BME280;1889;50.058;8.688;2022-09-09T12:55:51;99784.84;;;19.83;70.68
3748;BME280;1889;50.058;8.688;2022-09-09T12:58:20;99787.83;;;19.56;70.88
3748;BME280;1889;50.058;8.688;2022-09-09T13:00:55;99782.33;;;19.36;71.69
3748;BME280;1889;50.058;8.688;2022-09-09T13:03:25;99774.23;;;19.37;71.44
3748;BME280;1889;50.058;8.688;2022-09-09T13:06:10;99775.92;;;19.38;72.10
3748;BME280;1889;50.058;8.688;2022-09-09T13:08:28;99771.27;;;19.79;69.42
3748;BME280;1889;50.058;8.688;2022-09-09T13:11:03;99777.41;;;20.09;67.92
3748;BME280;1889;50.058;8.688;2022-09-09T13:13:39;99785.22;;;20.12;68.40
3748;BME280;1889;50.058;8.688;2022-09-09T13:16:29;99785.80;;;20.32;67.60
3748;BME280;1889;50.058;8.688;2022-09-09T13:19:08;99786.19;;;20.47;67.20
3748;BME280;1889;50.058;8.688;2022-09-09T13:21:39;99798.77;;;20.31;68.85
3748;BME280;1889;50.058;8.688;2022-09-09T13:27:00;99791.58;;;19.67;64.98
3748;BME280;1889;50.058;8.688;2022-09-09T13:29:31;99790.95;;;19.92;65.81
3748;BME280;1889;50.058;8.688;2022-09-09T13:32:17;99790.09;;;20.06;65.33
3748;BME280;1889;50.058;8.688;2022-09-09T13:34:38;99784.95;;;20.17;64.83
3748;BME280;1889;50.058;8.688;2022-09-09T13:37:16;99789.31;;;20.11;64.09
3748;BME280;1889;50.058;8.688;2022-09-09T13:39:39;99782.59;;;20.34;63.34
3748;BME280;1889;50.058;8.688;2022-09-09T13:42:19;99779.70;;;20.37;62.82
3748;BME280;1889;50.058;8.688;2022-09-09T13:44:41;99773.02;;;20.51;62.56
3748;BME280;1889;50.058;8.688;2022-09-09T13:47:21;99761.34;;;20.52;62.13
3748;BME280;1889;50.058;8.688;2022-09-09T13:49:51;99760.08;;;20.65;61.65
3748;BME280;1889;50.058;8.688;2022-09-09T13:52:20;99760.47;;;20.66;61.43
3748;BME280;1889;50.058;8.688;2022-09-09T13:54:56;99761.09;;;20.83;61.12
3748;BME280;1889;50.058;8.688;2022-09-09T13:57:26;99764.16;;;20.70;60.53
3748;BME280;1889;50.058;8.688;2022-09-09T13:59:56;99772.28;;;20.69;61.07
3748;BME280;1889;50.058;8.688;2022-09-09T14:02:25;99780.41;;;20.74;60.30
3748;BME280;1889;50.058;8.688;2022-09-09T14:04:54;99775.08;;;20.67;57.37
3748;BME280;1889;50.058;8.688;2022-09-09T14:07:23;99785.64;;;20.83;57.80
3748;BME280;1889;50.058;8.688;2022-09-09T14:09:53;99793.04;;;20.65;57.42
3748;BME280;1889;50.058;8.688;2022-09-09T14:12:22;99797.45;;;20.45;58.22
3748;BME280;1889;50.058;8.688;2022-09-09T14:14:51;99801.56;;;20.36;58.25
3748;BME280;1889;50.058;8.688;2022-09-09T14:17:20;99806.30;;;20.74;57.75
3748;BME280;1889;50.058;8.688;2022-09-09T14:19:50;99810.86;;;20.79;57.63
3748;BME280;1889;50.058;8.688;2022-09-09T14:22:19;99810.13;;;20.63;58.23
3748;BME280;1889;50.058;8.688;2022-09-09T14:24:48;99805.11;;;20.51;58.67
3748;BME280;1889;50.058;8.688;2022-09-09T14:27:18;99800.72;;;20.43;58.29
3748;BME280;1889;50.058;8.688;2022-09-09T14:29:47;99805.38;;;20.46;58.33
3748;BME280;1889;50.058;8.688;2022-09-09T14:32:16;99807.39;;;20.50;58.37
3748;BME280;1889;50.058;8.688;2022-09-09T14:34:47;99801.65;;;20.56;57.84
3748;BME280;1889;50.058;8.688;2022-09-09T14:37:18;99798.66;;;20.75;57.51
3748;BME280;1889;50.058;8.688;2022-09-09T14:39:49;99797.96;;;20.78;57.38
3748;BME280;1889;50.058;8.688;2022-09-09T14:42:18;99786.98;;;20.83;56.97
3748;BME280;1889;50.058;8.688;2022-09-09T14:44:47;99782.81;;;20.99;56.67
3748;BME280;1889;50.058;8.688;2022-09-09T14:47:18;99777.53;;;21.04;56.75
3748;BME280;1889;50.058;8.688;2022-09-09T14:49:47;99769.65;;;21.22;56.55
3748;BME280;1889;50.058;8.688;2022-09-09T14:52:17;99768.99;;;21.39;56.62
3748;BME280;1889;50.058;8.688;2022-09-09T14:54:46;99759.23;;;21.11;55.22
3748;BME280;1889;50.058;8.688;2022-09-09T14:57:15;99764.55;;;21.25;54.72
3748;BME280;1889;50.058;8.688;2022-09-09T14:59:44;99755.03;;;21.14;54.39
3748;BME280;1889;50.058;8.688;2022-09-09T15:02:13;99750.67;;;21.06;54.36
3748;BME280;1889;50.058;8.688;2022-09-09T15:04:42;99741.91;;;20.97;54.80
3748;BME280;1889;50.058;8.688;2022-09-09T15:07:12;99743.75;;;21.16;54.51
3748;BME280;1889;50.058;8.688;2022-09-09T15:09:41;99747.80;;;21.02;55.11
3748;BME280;1889;50.058;8.688;2022-09-09T15:12:10;99744.94;;;21.05;55.11
3748;BME280;1889;50.058;8.688;2022-09-09T15:14:39;99741.56;;;20.88;55.74
3748;BME280;1889;50.058;8.688;2022-09-09T15:17:08;99738.09;;;20.93;55.58
3748;BME280;1889;50.058;8.688;2022-09-09T15:19:37;99750.67;;;21.06;55.35
3748;BME280;1889;50.058;8.688;2022-09-09T15:22:07;99734.94;;;20.94;55.64
3748;BME280;1889;50.058;8.688;2022-09-09T15:24:36;99749.10;;;21.09;55.43